Time;durP1;ratioP1;P1;durP2;ratioP2;P2;SDS_P1;SDS_P2;PMS_P1;PMS_P2;Temp;Humidity;BMP_temperature;BMP_pressure;BME280_temperature;BME280_humidity;BME280_pressure;Samples;Min_cycle;Max_cycle;Signal;HPM_P1;HPM_P2
2021/08/30 08:01:59;;;;;;;794.63;747.63;;;;;;;23.50;50.59;93243.09;5119497;27;20988;-44
2021/08/30 08:04:25;;;;;;;809.38;759.90;;;;;;;22.40;50.51;93251.47;5116656;27;20103;-43
2021/08/30 08:06:50;;;;;;;842.85;790.42;;;;;;;21.92;52.30;93257.56;5118529;27;20022;-45
2021/08/30 08:09:15;;;;;;;772.40;727.00;;;;;;;23.03;51.83;93241.03;5118511;28;20030;-44
2021/08/30 08:11:41;;;;;;;702.05;661.03;;;;;;;24.70;47.43;93250.88;5116964;27;20621;-45
2021/08/30 08:14:06;;;;;;;212.55;201.60;;;;;;;25.29;44.21;93245.34;5118389;28;20012;-43
2021/08/30 08:16:32;;;;;;;52.80;50.50;;;;;;;26.14;42.19;93251.19;5117008;28;20016;-43
2021/08/30 08:18:57;;;;;;;3.90;3.03;;;;;;;27.79;39.08;93253.38;5117576;27;20035;-45
2021/08/30 08:21:24;;;;;;;4.45;2.85;;;;;;;29.09;36.34;93243.81;5118382;28;21410;-43
2021/08/30 08:23:49;;;;;;;3.80;3.45;;;;;;;30.56;33.73;93249.56;5116699;28;20062;-42
2021/08/30 08:26:15;;;;;;;3.50;2.55;;;;;;;31.77;31.21;93245.63;5118756;27;20051;-41
2021/08/30 08:28:40;;;;;;;4.03;2.65;;;;;;;32.20;29.93;93241.84;5116867;27;20016;-41
2021/08/30 08:31:07;;;;;;;3.63;2.83;;;;;;;32.18;29.92;93239.69;5118355;28;20016;-42
2021/08/30 08:33:33;;;;;;;5.25;2.65;;;;;;;31.43;31.33;93234.50;5117021;28;20016;-41
2021/08/30 08:35:58;;;;;;;2.83;2.50;;;;;;;32.30;29.56;93249.78;5116498;27;20518;-42
2021/08/30 08:38:23;;;;;;;3.03;2.75;;;;;;;32.92;29.08;93233.19;5118604;28;20031;-43
2021/08/30 08:40:50;;;;;;;3.28;2.75;;;;;;;33.55;28.55;93240.78;5116431;28;20020;-44
2021/08/30 08:43:17;;;;;;;2.55;2.28;;;;;;;33.96;27.39;93243.81;5120182;27;20035;-43
2021/08/30 08:45:44;;;;;;;4.75;3.05;;;;;;;34.92;26.64;93238.25;5118260;27;20015;-44
2021/08/30 08:48:10;;;;;;;4.75;2.67;;;;;;;35.19;25.64;93241.13;5118054;28;20024;-43
2021/08/30 08:50:36;;;;;;;5.65;3.30;;;;;;;35.66;24.79;93240.31;5118984;27;20647;-43
2021/08/30 08:53:04;;;;;;;4.20;2.70;;;;;;;36.25;24.86;93243.69;5114961;28;20088;-43
2021/08/30 08:55:35;;;;;;;3.25;2.97;;;;;;;34.63;25.81;93239.69;5124564;28;20400;-43
2021/08/30 08:58:07;;;;;;;3.47;2.95;;;;;;;31.18;31.32;93247.72;5121433;27;20032;-45
2021/08/30 09:00:32;;;;;;;3.35;3.00;;;;;;;32.62;28.88;93247.97;5117065;28;20071;-45
2021/08/30 09:02:58;;;;;;;3.50;2.92;;;;;;;33.91;27.28;93237.34;5108569;27;20058;-43
2021/08/30 09:05:25;;;;;;;4.00;2.95;;;;;;;34.49;25.92;93241.78;5107913;28;20523;-44
2021/08/30 09:07:51;;;;;;;3.35;3.05;;;;;;;34.03;27.78;93242.41;5109817;27;20485;-45
2021/08/30 09:10:20;;;;;;;3.28;2.97;;;;;;;34.37;25.97;93238.94;5110972;28;20019;-46
2021/08/30 09:12:47;;;;;;;3.30;3.00;;;;;;;34.92;25.88;93243.28;5109771;28;20048;-45
2021/08/30 09:15:20;;;;;;;5.45;3.03;;;;;;;35.88;24.11;93241.66;5108664;28;20020;-46
2021/08/30 09:17:54;;;;;;;3.00;2.80;;;;;;;36.56;22.14;93235.59;5110480;28;20015;-46
2021/08/30 09:20:23;;;;;;;3.40;3.10;;;;;;;37.16;21.85;93228.66;5107372;28;20523;-42
2021/08/30 09:22:49;;;;;;;4.30;3.17;;;;;;;34.36;24.10;93229.59;5111699;28;20023;-44
2021/08/30 09:25:15;;;;;;;2.88;2.67;;;;;;;33.84;26.45;93227.31;5111639;28;20088;-44
2021/08/30 09:27:47;;;;;;;3.45;3.15;;;;;;;33.26;28.33;93232.72;5113323;28;20474;-45
2021/08/30 09:30:14;;;;;;;3.50;3.20;;;;;;;33.15;26.50;93209.06;5113289;27;20043;-45
2021/08/30 09:32:48;;;;;;;2.70;2.50;;;;;;;33.21;26.75;93226.25;5113315;28;20104;-49
2021/08/30 09:35:14;;;;;;;2.95;2.75;;;;;;;32.78;28.44;93213.06;5113058;28;20054;-45
2021/08/30 09:37:41;;;;;;;3.63;3.30;;;;;;;32.15;28.35;93226.09;5113164;28;20407;-45
2021/08/30 09:40:13;;;;;;;3.70;3.27;;;;;;;32.85;28.49;93223.84;5112835;28;20031;-45
2021/08/30 09:42:57;;;;;;;3.80;3.20;;;;;;;32.69;28.03;93218.03;5113072;28;20050;-46
2021/08/30 09:45:28;;;;;;;3.85;3.55;;;;;;;31.14;31.08;93226.97;5112736;28;20043;-45
2021/08/30 09:47:57;;;;;;;4.68;3.53;;;;;;;31.21;29.94;93229.19;5112781;28;20077;-45
2021/08/30 09:50:34;;;;;;;4.00;3.70;;;;;;;31.51;29.88;93219.63;5112560;28;20016;-46
2021/08/30 09:53:01;;;;;;;5.35;3.35;;;;;;;32.92;28.27;93219.59;5112773;28;20034;-46
2021/08/30 09:55:28;;;;;;;4.93;3.13;;;;;;;33.45;26.20;93219.94;5106865;28;20028;-46
2021/08/30 09:57:54;;;;;;;3.72;3.38;;;;;;;32.66;27.83;93222.28;5112509;28;20573;-45
2021/08/30 10:00:20;;;;;;;3.90;3.60;;;;;;;31.50;27.99;93226.75;5111972;28;20130;-45
2021/08/30 10:02:54;;;;;;;3.97;3.60;;;;;;;31.86;30.13;93218.63;5112678;28;20053;-46
2021/08/30 10:05:24;;;;;;;3.75;3.45;;;;;;;31.02;29.22;93223.94;5112158;28;20504;-45
2021/08/30 10:07:53;;;;;;;3.95;3.65;;;;;;;32.75;28.96;93217.34;5112526;28;20095;-45
2021/08/30 10:10:18;;;;;;;;;;;;;;;31.61;29.76;93222.59;5113001;28;20024;-46
2021/08/30 10:12:44;;;;;;;4.15;3.75;;;;;;;28.92;34.29;93220.00;5108130;28;20411;-43
2021/08/30 10:15:11;;;;;;;5.45;4.13;;;;;;;29.02;33.48;93213.84;5105425;28;20043;-44
2021/08/30 10:17:43;;;;;;;4.80;4.40;;;;;;;29.13;33.89;93213.34;5104060;28;20028;-47
2021/08/30 10:20:14;;;;;;;4.35;3.95;;;;;;;31.02;28.40;93213.25;5101008;28;20020;-45
2021/08/30 10:22:39;;;;;;;4.78;3.45;;;;;;;31.53;29.78;93211.09;5103059;28;20023;-45
2021/08/30 10:25:15;;;;;;;4.43;4.03;;;;;;;31.02;29.32;93206.81;5098826;28;20038;-45
2021/08/30 10:27:40;;;;;;;3.85;3.55;;;;;;;29.69;29.13;93208.09;5102178;28;20059;-45
2021/08/30 10:30:11;;;;;;;4.53;3.78;;;;;;;28.31;33.63;93203.66;5097306;28;20079;-46
2021/08/30 10:32:41;;;;;;;4.75;4.22;;;;;;;27.44;35.06;93189.31;5097345;28;20402;-44
2021/08/30 10:35:12;;;;;;;3.85;3.42;;;;;;;27.47;36.28;93198.59;5097080;28;20031;-46
2021/08/30 10:37:54;;;;;;;3.90;3.55;;;;;;;27.68;35.76;93192.06;5097208;28;20031;-46
2021/08/30 10:40:21;;;;;;;4.45;3.67;;;;;;;27.07;34.33;93208.78;5097535;28;20036;-44
2021/08/30 10:43:16;;;;;;;4.90;3.72;;;;;;;28.11;33.13;93202.44;5097706;28;20038;-46
2021/08/30 10:45:55;;;;;;;2.95;2.72;;;;;;;27.46;32.45;93200.72;5088254;28;20047;-45
2021/08/30 10:48:21;;;;;;;3.72;3.42;;;;;;;27.11;34.75;93201.13;5098733;28;20538;-46
2021/08/30 10:50:51;;;;;;;3.50;3.20;;;;;;;26.40;34.67;93195.41;5096961;28;20107;-45
2021/08/30 10:53:26;;;;;;;3.90;3.50;;;;;;;28.15;32.25;93189.06;5096728;28;20201;-44
2021/08/30 10:56:07;;;;;;;3.50;2.90;;;;;;;28.82;31.17;93191.38;5098993;28;20172;-44
2021/08/30 10:58:33;;;;;;;3.22;2.60;;;;;;;28.30;30.51;93185.19;5096021;28;20039;-44
2021/08/30 11:01:10;;;;;;;3.45;2.63;;;;;;;27.17;29.99;93189.22;5095965;28;20040;-43
2021/08/30 11:03:36;;;;;;;2.83;2.40;;;;;;;28.03;31.94;93190.88;5099020;28;20308;-46
2021/08/30 11:06:07;;;;;;;4.22;2.80;;;;;;;28.61;31.17;93191.59;5093370;28;20039;-48
2021/08/30 11:08:34;;;;;;;2.97;2.75;;;;;;;30.07;28.90;93188.19;5096137;28;20545;-45
2021/08/30 11:11:20;;;;;;;3.13;2.80;;;;;;;28.16;28.43;93182.00;5098962;28;20114;-45
2021/08/30 11:14:05;;;;;;;3.45;3.15;;;;;;;29.50;29.10;93188.56;5098257;28;20027;-46
2021/08/30 11:16:33;;;;;;;2.92;2.63;;;;;;;29.94;26.34;93192.97;5097996;28;20032;-45
2021/08/30 11:19:01;;;;;;;2.95;2.60;;;;;;;29.51;26.74;93190.69;5096240;28;20107;-45
2021/08/30 11:21:34;;;;;;;2.67;2.45;;;;;;;29.59;25.26;93190.84;5099109;28;20071;-45
2021/08/30 11:24:00;;;;;;;2.40;2.20;;;;;;;29.67;26.07;93196.00;5108708;28;20431;-47
2021/08/30 11:26:25;;;;;;;2.53;2.30;;;;;;;30.08;26.04;93169.00;5107502;28;20040;-44
2021/08/30 11:29:01;;;;;;;2.90;2.70;;;;;;;29.41;27.75;93193.34;5088161;28;20035;-44
2021/08/30 11:31:29;;;;;;;4.28;3.20;;;;;;;30.04;28.30;93186.00;5086252;28;20055;-45
2021/08/30 11:33:55;;;;;;;4.60;3.28;;;;;;;29.94;26.36;93187.28;5088207;28;20035;-45
2021/08/30 11:36:20;;;;;;;3.75;3.33;;;;;;;30.13;27.80;93187.56;5088099;28;20036;-46
2021/08/30 11:38:52;;;;;;;3.88;3.10;;;;;;;29.46;28.89;93191.28;5105337;28;20048;-44
2021/08/30 11:41:17;;;;;;;3.95;3.60;;;;;;;29.31;29.41;93184.59;5108472;28;20027;-45
2021/08/30 11:43:43;;;;;;;4.35;4.05;;;;;;;28.92;29.62;93185.91;5107754;28;20038;-44
2021/08/30 11:46:09;;;;;;;4.32;3.92;;;;;;;29.12;28.32;93174.25;5105224;28;20050;-44
2021/08/30 11:48:34;;;;;;;3.83;3.40;;;;;;;28.34;29.03;93182.44;5096972;28;20074;-45
2021/08/30 11:51:06;;;;;;;4.40;3.80;;;;;;;27.85;30.26;93181.88;5095862;28;20028;-44
2021/08/30 11:53:32;;;;;;;5.30;3.90;;;;;;;27.80;32.33;93183.91;5100976;28;20038;-46
2021/08/30 11:55:58;;;;;;;4.00;3.60;;;;;;;28.23;32.30;93182.84;5097463;28;20035;-46
2021/08/30 11:58:33;;;;;;;4.13;3.70;;;;;;;28.99;31.55;93183.91;5094387;28;20042;-43
2021/08/30 12:01:06;;;;;;;3.83;3.53;;;;;;;29.37;28.85;93178.34;5087270;28;20096;-43
2021/08/30 12:03:42;;;;;;;5.30;4.03;;;;;;;29.58;29.60;93178.03;5087998;28;20036;-44
2021/08/30 12:06:19;;;;;;;3.72;3.35;;;;;;;29.53;28.87;93172.94;5091351;28;20477;-46
2021/08/30 12:08:49;;;;;;;6.00;3.30;;;;;;;29.39;29.74;93172.69;5102276;28;20431;-45
2021/08/30 12:11:15;;;;;;;5.25;3.92;;;;;;;29.42;29.99;93165.63;5108175;28;20046;-45
2021/08/30 12:16:23;;;;;;;4.65;3.67;;;;;;;29.11;30.35;93138.66;5094359;28;20024;-44
2021/08/30 12:18:53;;;;;;;4.18;3.78;;;;;;;29.32;30.54;93166.16;5091966;28;20055;-44
2021/08/30 12:21:33;;;;;;;4.03;3.63;;;;;;;29.33;30.39;93170.44;5089733;28;20024;-45
2021/08/30 12:23:59;;;;;;;3.60;3.28;;;;;;;29.32;31.38;93165.44;5101371;28;20429;-44
2021/08/30 12:26:25;;;;;;;4.03;3.28;;;;;;;29.36;31.45;93162.66;5087579;28;20108;-44
2021/08/30 12:28:55;;;;;;;3.38;3.08;;;;;;;29.42;30.98;93157.09;5091233;28;20032;-45
2021/08/30 12:31:31;;;;;;;6.10;3.50;;;;;;;29.48;31.33;93163.59;5106022;28;20028;-45
2021/08/30 12:34:07;;;;;;;4.65;3.22;;;;;;;29.40;30.81;93157.03;5104633;28;20419;-45
2021/08/30 12:36:33;;;;;;;4.35;3.25;;;;;;;29.40;30.00;93139.97;5087109;28;20044;-44
2021/08/30 12:38:59;;;;;;;3.97;3.35;;;;;;;29.17;31.04;93167.28;5091115;28;20110;-43
2021/08/30 12:41:24;;;;;;;5.25;3.20;;;;;;;28.91;31.79;93164.56;5091412;28;20116;-43
2021/08/30 12:43:50;;;;;;;3.50;3.20;;;;;;;28.46;31.75;93148.63;5096739;28;20035;-44
2021/08/30 12:46:16;;;;;;;3.00;2.80;;;;;;;28.53;30.14;93158.75;5097321;28;20020;-44
2021/08/30 12:48:41;;;;;;;3.78;3.47;;;;;;;28.32;33.86;93167.47;5109305;28;20114;-44
2021/08/30 12:51:07;;;;;;;5.05;3.60;;;;;;;28.16;33.91;93167.06;5110701;28;20039;-45
2021/08/30 12:53:33;;;;;;;4.15;3.10;;;;;;;28.02;32.33;93166.72;5111612;28;20051;-43
2021/08/30 12:55:59;;;;;;;4.63;3.38;;;;;;;27.82;32.19;93163.34;5111087;28;20496;-44
2021/08/30 12:58:24;;;;;;;3.60;3.30;;;;;;;27.51;33.61;93147.66;5104172;28;20028;-43
2021/08/30 13:00:50;;;;;;;4.93;3.30;;;;;;;27.32;32.57;93162.72;5101798;28;20047;-43
2021/08/30 13:03:17;;;;;;;3.90;3.03;;;;;;;26.87;33.68;93130.31;5111272;28;20027;-44
2021/08/30 13:05:42;;;;;;;3.63;3.20;;;;;;;26.74;33.83;93170.28;5104828;28;20420;-43
2021/08/30 13:08:13;;;;;;;4.38;2.85;;;;;;;26.46;33.56;93167.31;5100839;28;20031;-43
2021/08/30 13:10:39;;;;;;;3.33;2.90;;;;;;;26.20;35.37;93177.81;5104862;28;20501;-42
2021/08/30 13:13:05;;;;;;;7.03;2.88;;;;;;;25.95;36.04;93169.88;5110991;28;20031;-42
2021/08/30 13:15:30;;;;;;;3.97;3.42;;;;;;;25.88;35.91;93168.94;5110700;28;20043;-43
2021/08/30 13:17:56;;;;;;;2.85;2.60;;;;;;;25.73;35.04;93169.16;5111122;28;20058;-43
2021/08/30 13:20:22;;;;;;;3.67;3.35;;;;;;;25.66;37.00;93173.88;5110431;28;20024;-41
2021/08/30 13:22:48;;;;;;;3.72;2.90;;;;;;;25.46;37.46;93170.34;5111256;28;20035;-42
2021/08/30 13:25:16;;;;;;;4.07;2.75;;;;;;;25.43;35.83;93177.31;5109782;28;20031;-44
2021/08/30 13:27:46;;;;;;;3.67;3.25;;;;;;;25.39;37.23;93175.06;5110458;28;20028;-42
2021/08/30 13:30:13;;;;;;;2.92;2.63;;;;;;;25.35;36.86;93172.09;5109049;28;20035;-46
2021/08/30 13:32:39;;;;;;;3.83;2.97;;;;;;;25.24;35.81;93173.09;5098203;28;20032;-45
2021/08/30 13:35:06;;;;;;;4.05;2.85;;;;;;;25.22;35.75;93181.50;5090505;28;20024;-46
2021/08/30 13:37:31;;;;;;;3.83;2.72;;;;;;;25.22;36.44;93175.88;5101388;28;20031;-45
2021/08/30 13:39:57;;;;;;;5.10;2.97;;;;;;;25.16;37.53;93178.47;5109985;28;20030;-45
2021/08/30 13:42:22;;;;;;;9.48;2.97;;;;;;;25.12;37.43;93180.44;5109007;28;20035;-46
2021/08/30 13:44:47;;;;;;;3.50;3.20;;;;;;;24.97;36.29;93179.19;5109421;28;20031;-46
2021/08/30 13:47:13;;;;;;;2.90;2.70;;;;;;;24.96;36.73;93177.75;5109812;28;20077;-44
2021/08/30 13:49:39;;;;;;;2.60;2.40;;;;;;;24.93;37.34;93181.84;5110136;27;20835;-44
2021/08/30 13:52:05;;;;;;;3.70;2.67;;;;;;;24.89;35.01;93180.97;5108918;28;20019;-46
2021/08/30 13:54:30;;;;;;;2.67;2.42;;;;;;;24.74;34.86;93177.66;5110622;27;20040;-45
2021/08/30 13:56:56;;;;;;;3.17;2.35;;;;;;;24.65;37.57;93177.97;5110565;28;20028;-45
2021/08/30 13:59:21;;;;;;;4.53;2.28;;;;;;;24.59;37.94;93180.56;5099525;28;20401;-46
2021/08/30 14:01:47;;;;;;;2.90;2.60;;;;;;;24.53;35.35;93183.16;5089295;28;20044;-45
2021/08/30 14:04:12;;;;;;;3.50;2.45;;;;;;;24.50;37.55;93193.63;5089721;28;20024;-45
2021/08/30 14:06:38;;;;;;;3.80;2.83;;;;;;;24.45;38.87;93188.50;5089491;28;20604;-44
2021/08/30 14:09:05;;;;;;;3.08;2.78;;;;;;;24.36;37.38;93186.72;5093010;28;20081;-45
2021/08/30 14:11:31;;;;;;;3.35;2.63;;;;;;;24.29;37.28;93197.06;5101216;28;20653;-43
2021/08/30 14:13:56;;;;;;;2.40;2.20;;;;;;;24.15;38.33;93184.50;5105501;28;20019;-47
2021/08/30 14:16:22;;;;;;;3.92;2.58;;;;;;;24.07;38.18;93202.53;5106059;28;20024;-45
2021/08/30 14:18:47;;;;;;;3.33;3.03;;;;;;;24.02;40.56;93195.25;5110375;28;20606;-45
2021/08/30 14:21:12;;;;;;;3.65;2.83;;;;;;;24.04;41.10;93194.59;5091626;28;20473;-45
2021/08/30 14:23:38;;;;;;;3.33;3.03;;;;;;;24.06;40.13;93194.72;5090604;28;20633;-45
2021/08/30 14:26:04;;;;;;;4.93;3.10;;;;;;;24.04;41.10;93194.59;5090268;28;20039;-44
2021/08/30 14:28:30;;;;;;;5.97;3.22;;;;;;;24.11;38.13;93196.31;5090385;28;20520;-45
2021/08/30 14:30:57;;;;;;;3.17;2.88;;;;;;;23.99;38.46;93187.38;5090675;28;20082;-44
2021/08/30 14:33:22;;;;;;;6.53;3.15;;;;;;;23.97;39.37;93204.91;5090399;28;20032;-46
2021/08/30 14:35:48;;;;;;;2.80;2.60;;;;;;;23.89;39.86;93201.78;5091826;28;20031;-46
2021/08/30 14:38:13;;;;;;;3.28;2.97;;;;;;;23.78;38.64;93197.09;5111746;28;20026;-46
2021/08/30 14:40:41;;;;;;;8.77;3.42;;;;;;;23.73;41.35;93203.22;5111710;28;20023;-44
2021/08/30 14:43:06;;;;;;;3.22;2.92;;;;;;;23.63;40.78;93199.97;5111851;28;20057;-46
2021/08/30 14:45:32;;;;;;;4.00;3.28;;;;;;;23.64;42.21;93199.34;5111502;28;20051;-44
2021/08/30 14:48:00;;;;;;;8.27;3.22;;;;;;;23.57;40.97;93200.44;5111497;28;20019;-44
2021/08/30 14:50:26;;;;;;;3.90;3.50;;;;;;;23.55;41.61;93197.53;5101185;28;20089;-45
2021/08/30 14:52:51;;;;;;;3.90;3.30;;;;;;;23.51;42.07;93199.47;5099052;28;20454;-45
2021/08/30 14:55:17;;;;;;;5.32;3.20;;;;;;;23.42;42.71;93201.22;5090129;28;20052;-45
2021/08/30 14:57:42;;;;;;;4.65;3.63;;;;;;;23.47;43.32;93199.28;5091154;28;20028;-47
2021/08/30 15:00:08;;;;;;;5.97;3.30;;;;;;;23.44;43.42;93200.56;5097679;28;20044;-45
2021/08/30 15:02:36;;;;;;;5.03;3.35;;;;;;;23.46;44.83;93200.63;5090873;28;20024;-46
2021/08/30 15:05:01;;;;;;;6.93;3.85;;;;;;;23.46;43.24;93201.38;5091107;28;20027;-45
2021/08/30 15:07:26;;;;;;;4.15;3.72;;;;;;;23.37;42.68;93207.31;5098951;28;20737;-46
2021/08/30 15:09:52;;;;;;;3.63;3.33;;;;;;;23.29;42.74;93214.03;5100970;28;20024;-45
2021/08/30 15:12:17;;;;;;;5.93;3.50;;;;;;;23.27;43.58;93204.75;5099436;28;20698;-45
2021/08/30 15:14:43;;;;;;;3.58;3.22;;;;;;;23.27;44.15;93204.75;5099400;27;20048;-45
2021/08/30 15:17:08;;;;;;;7.28;4.03;;;;;;;23.23;44.22;93215.84;5097874;28;20027;-45
2021/08/30 15:19:34;;;;;;;6.25;3.60;;;;;;;23.17;43.84;93213.47;5090666;28;20031;-45
2021/08/30 15:21:59;;;;;;;4.63;3.83;;;;;;;23.13;44.42;93213.31;5090850;28;20036;-44
2021/08/30 15:24:25;;;;;;;4.65;4.10;;;;;;;23.02;43.50;93214.22;5090628;28;20024;-48
2021/08/30 15:26:50;;;;;;;4.55;4.13;;;;;;;23.01;44.56;93212.78;5090778;28;20028;-46
2021/08/30 15:29:16;;;;;;;4.07;3.67;;;;;;;22.99;44.66;93209.88;5090744;28;20051;-45
2021/08/30 15:31:42;;;;;;;4.95;3.60;;;;;;;22.91;45.08;93222.88;5090436;28;20031;-46
2021/08/30 15:34:08;;;;;;;4.03;3.63;;;;;;;22.80;45.18;93221.69;5109107;28;20027;-46
2021/08/30 15:36:34;;;;;;;4.40;4.00;;;;;;;22.72;45.59;93220.59;5111059;28;20031;-46
2021/08/30 15:39:00;;;;;;;4.43;3.92;;;;;;;22.68;45.59;93223.22;5111030;28;20484;-46
2021/08/30 15:41:26;;;;;;;4.47;3.80;;;;;;;22.60;45.71;93223.59;5110723;28;20015;-45
2021/08/30 15:43:52;;;;;;;4.63;3.95;;;;;;;22.51;45.96;93222.47;5110639;28;20028;-46
2021/08/30 15:46:18;;;;;;;4.78;4.28;;;;;;;22.47;45.66;93224.34;5110884;28;20035;-46
2021/08/30 15:48:44;;;;;;;6.28;4.20;;;;;;;22.30;45.93;93227.78;5110925;28;20388;-46
2021/08/30 15:51:09;;;;;;;4.50;3.83;;;;;;;22.16;46.62;93218.66;5110309;28;20114;-45
2021/08/30 15:53:35;;;;;;;11.45;4.45;;;;;;;22.15;47.43;93220.75;5110518;28;20081;-45
2021/08/30 15:56:02;;;;;;;4.53;4.05;;;;;;;22.19;48.06;93231.47;5110769;28;20027;-46
2021/08/30 15:58:28;;;;;;;5.07;4.63;;;;;;;22.08;47.26;93241.50;5107682;28;20110;-45
2021/08/30 16:00:54;;;;;;;5.72;4.60;;;;;;;22.03;48.49;93236.31;5090077;28;20115;-45
2021/08/30 16:03:19;;;;;;;7.38;4.45;;;;;;;22.02;48.41;93246.84;5090299;28;20496;-46
2021/08/30 16:05:44;;;;;;;5.60;5.10;;;;;;;21.92;47.74;93234.38;5090389;28;20409;-46
2021/08/30 16:08:10;;;;;;;5.13;4.63;;;;;;;21.94;48.63;93252.06;5090068;28;20672;-45
2021/08/30 16:10:35;;;;;;;5.20;4.22;;;;;;;21.87;48.90;93250.31;5090020;28;20020;-45
2021/08/30 16:13:01;;;;;;;5.40;4.90;;;;;;;21.86;48.41;93254.47;5093683;28;20027;-46
2021/08/30 16:15:28;;;;;;;8.95;4.65;;;;;;;21.68;47.91;93251.47;5094460;28;20492;-44
2021/08/30 16:17:54;;;;;;;6.57;5.40;;;;;;;21.75;50.57;93258.09;5095076;28;20055;-45
2021/08/30 16:20:21;;;;;;;6.60;4.63;;;;;;;21.73;49.43;93249.56;5106369;28;20059;-45
2021/08/30 16:22:47;;;;;;;6.53;5.05;;;;;;;21.69;49.27;93260.63;5112465;28;20100;-45
2021/08/30 16:25:13;;;;;;;6.78;5.22;;;;;;;21.54;48.98;93262.00;5112070;27;20024;-46
2021/08/30 16:27:39;;;;;;;8.10;5.47;;;;;;;21.51;49.39;93256.88;5093157;28;20024;-46
2021/08/30 16:30:06;;;;;;;5.45;4.95;;;;;;;21.49;50.77;93265.22;5108112;28;20028;-46
2021/08/30 16:32:33;;;;;;;7.20;5.22;;;;;;;21.38;50.54;93266.06;5110903;28;20146;-45
2021/08/30 16:34:58;;;;;;;6.45;5.50;;;;;;;21.26;49.54;93268.25;5111276;28;20041;-49
2021/08/30 16:37:24;;;;;;;5.60;5.07;;;;;;;21.20;49.86;93268.69;5104249;28;20035;-46
2021/08/30 16:39:49;;;;;;;7.68;5.57;;;;;;;21.09;49.97;93278.63;5095246;28;20031;-46
2021/08/30 16:42:15;;;;;;;6.13;5.55;;;;;;;20.99;49.87;93286.50;5091144;28;20028;-47
2021/08/30 16:44:40;;;;;;;8.55;5.47;;;;;;;20.88;51.27;93275.34;5104536;28;20027;-45
2021/08/30 16:47:06;;;;;;;7.28;5.55;;;;;;;20.83;51.13;93277.22;5111377;28;20097;-47
2021/08/30 16:49:31;;;;;;;7.90;7.07;;;;;;;20.79;51.19;93282.59;5101821;28;20032;-46
2021/08/30 16:51:58;;;;;;;9.02;8.20;;;;;;;20.70;51.32;93277.94;5091527;28;20028;-46
2021/08/30 16:54:23;;;;;;;101.85;96.93;;;;;;;20.65;53.10;93287.47;5090050;28;20493;-46
2021/08/30 16:56:49;;;;;;;18.30;17.17;;;;;;;20.59;51.81;93287.16;5091211;28;20032;-46
2021/08/30 16:59:14;;;;;;;135.65;129.43;;;;;;;20.49;53.03;93297.09;5091016;28;20493;-45
2021/08/30 17:01:40;;;;;;;117.13;111.68;;;;;;;20.45;53.04;93303.19;5090545;28;20538;-46
2021/08/30 17:04:05;;;;;;;141.38;134.52;;;;;;;20.42;52.69;93301.63;5090663;28;20036;-48
2021/08/30 17:06:31;;;;;;;225.52;215.02;;;;;;;20.31;53.27;93299.63;5090577;28;20027;-48
2021/08/30 17:08:57;;;;;;;213.50;203.70;;;;;;;20.21;52.77;93310.25;5090671;28;20039;-44
2021/08/30 17:11:22;;;;;;;275.13;262.30;;;;;;;20.09;53.38;93313.09;5090721;28;20063;-46
2021/08/30 17:13:48;;;;;;;406.27;385.88;;;;;;;20.07;54.02;93310.16;5090579;28;20562;-48
2021/08/30 17:16:13;;;;;;;336.05;320.10;;;;;;;20.04;53.38;93310.66;5090631;28;20035;-46
2021/08/30 17:18:39;;;;;;;437.55;415.65;;;;;;;19.99;53.42;93315.28;5090692;28;20480;-45
2021/08/30 17:21:05;;;;;;;534.42;504.25;;;;;;;19.86;55.52;93304.03;5090632;28;20432;-46
2021/08/30 17:23:32;;;;;;;738.45;693.58;;;;;;;19.77;55.93;93304.91;5090086;28;20519;-45
2021/08/30 17:25:58;;;;;;;709.00;665.95;;;;;;;19.82;54.32;93326.19;5101024;28;20043;-46
2021/08/30 17:28:24;;;;;;;699.97;657.65;;;;;;;19.63;54.63;93332.81;5110925;28;20050;-45
2021/08/30 17:30:50;;;;;;;748.65;702.00;;;;;;;19.52;55.20;93331.50;5110400;28;20103;-46
2021/08/30 17:46:08;;;;;;;889.28;833.03;;;;;;;20.00;55.23;93344.06;5106001;27;21215;-48
2021/08/30 17:48:33;;;;;;;841.67;788.55;;;;;;;19.80;56.63;93342.88;5105741;28;20035;-47
2021/08/30 17:50:59;;;;;;;796.47;746.50;;;;;;;19.61;57.15;93339.03;5106542;28;20030;-47
2021/08/30 17:53:24;;;;;;;841.85;789.28;;;;;;;19.46;56.34;93350.00;5124132;27;20033;-46
2021/08/30 17:55:50;;;;;;;836.17;784.53;;;;;;;19.32;56.96;93357.50;5125952;27;20546;-45
2021/08/30 17:58:15;;;;;;;833.13;781.47;;;;;;;19.19;57.71;93360.94;5126033;27;20019;-47
2021/08/30 18:00:41;;;;;;;800.78;753.30;;;;;;;19.06;56.54;93367.84;5125578;28;20059;-46
2021/08/30 18:03:06;;;;;;;796.70;747.95;;;;;;;18.99;58.13;93368.09;5125891;27;20027;-47
2021/08/30 18:05:32;;;;;;;821.35;771.35;;;;;;;18.97;58.27;93376.38;5126004;27;20096;-45
2021/08/30 18:07:58;;;;;;;823.15;773.15;;;;;;;18.88;58.16;93375.84;5125941;27;20039;-45
2021/08/30 18:10:24;;;;;;;830.13;779.05;;;;;;;18.83;58.08;93381.81;5126217;27;20056;-45
2021/08/30 18:12:49;;;;;;;892.80;833.63;;;;;;;18.77;59.30;93384.22;5126078;28;20050;-44
2021/08/30 18:15:15;;;;;;;830.45;779.13;;;;;;;18.60;57.15;93374.06;5126128;27;20381;-44
2021/08/30 18:17:41;;;;;;;867.95;812.72;;;;;;;18.60;58.65;93387.34;5125584;27;20510;-47
2021/08/30 18:20:08;;;;;;;876.13;820.35;;;;;;;18.54;58.31;93398.13;5118734;27;20021;-47
2021/08/30 18:22:34;;;;;;;907.65;847.20;;;;;;;18.45;59.77;93393.38;5094873;28;20082;-45
2021/08/30 18:24:59;;;;;;;960.13;891.72;;;;;;;18.25;60.46;93372.47;5094803;28;20646;-45
2021/08/30 18:27:25;;;;;;;923.75;858.15;;;;;;;18.18;59.83;93380.47;5092109;28;20505;-47
2021/08/30 18:29:51;;;;;;;888.70;829.00;;;;;;;18.21;59.52;93394.56;5092148;28;20055;-46
2021/08/30 18:32:16;;;;;;;907.50;845.47;;;;;;;18.14;59.35;93405.34;5094273;28;20024;-46
2021/08/30 18:34:42;;;;;;;931.70;867.97;;;;;;;18.02;59.79;93403.81;5095349;28;20059;-47
2021/08/30 18:37:07;;;;;;;980.05;908.85;;;;;;;17.97;60.44;93411.22;5095171;28;20092;-46
2021/08/30 18:39:33;;;;;;;972.30;899.33;;;;;;;17.89;61.52;93405.06;5092440;28;20028;-47
2021/08/30 18:41:59;;;;;;;976.90;903.15;;;;;;;17.76;60.86;93413.97;5098414;28;20574;-46
2021/08/30 18:44:25;;;;;;;1006.83;929.15;;;;;;;17.73;62.42;93411.66;5124071;28;20047;-45
2021/08/30 18:46:51;;;;;;;998.95;922.15;;;;;;;17.68;61.22;93416.25;5111659;27;20562;-47
2021/08/30 18:49:17;;;;;;;965.72;894.30;;;;;;;17.61;60.92;93411.56;5111477;28;20054;-46
2021/08/30 18:51:43;;;;;;;1023.47;942.17;;;;;;;17.41;62.63;93399.03;5111138;28;20032;-47
2021/08/30 18:54:08;;;;;;;1007.13;927.70;;;;;;;17.47;63.09;93413.38;5110190;27;20019;-47
2021/08/30 18:56:34;;;;;;;1020.10;939.20;;;;;;;17.44;62.60;93414.56;5111413;28;20024;-46
2021/08/30 18:59:00;;;;;;;985.83;908.92;;;;;;;17.38;62.05;93416.94;5111028;28;20020;-46
2021/08/30 19:01:25;;;;;;;1003.47;924.72;;;;;;;17.34;62.22;93413.88;5111406;28;20038;-46
2021/08/30 19:03:51;;;;;;;1007.03;927.35;;;;;;;17.30;62.88;93417.13;5111530;28;20531;-48
2021/08/30 19:06:17;;;;;;;1015.60;932.00;;;;;;;17.15;63.50;93419.53;5111451;28;20057;-45
2021/08/30 19:08:43;;;;;;;959.38;881.00;;;;;;;16.90;63.02;93410.81;5111474;28;20027;-45
2021/08/30 19:11:08;;;;;;;1022.25;933.40;;;;;;;16.89;64.74;93421.22;5110808;28;20579;-45
2021/08/30 19:13:33;;;;;;;1097.72;989.47;;;;;;;16.76;65.47;93416.13;5111097;28;20131;-45
2021/08/30 19:16:02;;;;;;;1056.75;956.05;;;;;;;16.41;65.11;93401.78;5111033;28;20031;-46
2021/08/30 19:18:28;;;;;;;1061.70;963.67;;;;;;;16.44;65.21;93416.56;5110937;28;20020;-45
2021/08/30 19:20:53;;;;;;;1043.28;946.65;;;;;;;16.42;64.58;93414.38;5110656;28;20028;-46
2021/08/30 19:23:19;;;;;;;1023.58;932.80;;;;;;;16.47;63.96;93413.34;5110453;28;20024;-46
2021/08/30 19:25:44;;;;;;;995.70;907.35;;;;;;;16.43;63.15;93418.66;5101960;28;20024;-46
2021/08/30 19:28:11;;;;;;;1085.25;977.60;;;;;;;16.46;64.79;93414.66;5088843;28;20020;-46
2021/08/30 19:30:36;;;;;;;1104.65;986.85;;;;;;;16.43;64.82;93420.69;5092345;28;20081;-47
2021/08/30 19:33:02;;;;;;;1130.28;991.95;;;;;;;16.41;65.25;93426.88;5111027;28;20111;-45
2021/08/30 19:35:27;;;;;;;1210.43;999.90;;;;;;;16.36;65.41;93425.09;5110426;28;20412;-47
2021/08/30 19:37:53;;;;;;;1112.63;993.15;;;;;;;16.31;64.44;93426.13;5110778;28;20027;-47
2021/08/30 19:40:19;;;;;;;1163.25;999.90;;;;;;;16.08;65.78;93423.03;5109021;28;20027;-45